createdAt,value
2023-01-29T00:02:03.988Z,2.76
2023-01-29T00:04:33.518Z,2.72
2023-01-29T00:07:01.632Z,2.73
2023-01-29T00:09:29.932Z,2.77
2023-01-29T00:11:58.017Z,2.76
2023-01-29T00:14:27.430Z,2.75
2023-01-29T00:16:55.938Z,2.76
2023-01-29T00:19:24.018Z,2.81
2023-01-29T00:21:53.639Z,2.76
2023-01-29T00:24:22.694Z,2.80
2023-01-29T00:26:51.185Z,2.83
2023-01-29T00:29:19.836Z,2.85
2023-01-29T00:31:48.234Z,2.88
2023-01-29T00:34:17.337Z,2.86
2023-01-29T00:36:46.454Z,2.90
2023-01-29T00:39:15.955Z,2.90
2023-01-29T00:42:01.475Z,2.92
2023-01-29T00:44:47.180Z,2.88
2023-01-29T00:47:32.056Z,2.87
2023-01-29T00:50:00.176Z,2.83
2023-01-29T00:52:28.742Z,2.82
2023-01-29T00:54:59.906Z,2.81
2023-01-29T00:57:29.958Z,2.77
2023-01-29T00:59:58.068Z,2.79
2023-01-29T01:02:43.796Z,2.83
2023-01-29T01:05:14.298Z,2.85
2023-01-29T01:07:42.930Z,2.83
2023-01-29T01:10:22.552Z,2.75
2023-01-29T01:12:52.403Z,2.81
2023-01-29T01:15:21.044Z,2.75
2023-01-29T01:17:50.091Z,2.71
2023-01-29T01:20:18.821Z,2.69
2023-01-29T01:22:47.066Z,2.65
2023-01-29T01:25:17.715Z,2.67
2023-01-29T01:27:45.856Z,2.63
2023-01-29T01:30:15.679Z,2.66
2023-01-29T01:32:44.694Z,2.68
2023-01-29T01:35:13.848Z,2.71
2023-01-29T01:37:42.606Z,2.67
2023-01-29T01:40:18.356Z,2.68
2023-01-29T01:42:50.743Z,2.71
2023-01-29T01:45:20.890Z,2.70
2023-01-29T01:47:50.416Z,2.73
2023-01-29T01:50:21.975Z,2.73
2023-01-29T01:52:52.802Z,2.73
2023-01-29T01:55:23.073Z,2.72
2023-01-29T01:57:54.348Z,2.77
2023-01-29T02:00:23.379Z,2.78
2023-01-29T02:03:09.077Z,2.80
2023-01-29T02:05:55.741Z,2.80
2023-01-29T02:08:43.964Z,2.80
2023-01-29T02:11:12.261Z,2.85
2023-01-29T02:13:42.891Z,2.85
2023-01-29T02:16:11.018Z,2.85
2023-01-29T02:18:39.581Z,2.81
2023-01-29T02:21:15.015Z,2.81
2023-01-29T02:23:55.755Z,2.77
2023-01-29T02:26:33.346Z,2.77
2023-01-29T02:29:22.639Z,2.73
2023-01-29T02:31:56.291Z,2.76
2023-01-29T02:34:30.667Z,2.76
2023-01-29T02:37:02.564Z,2.66
2023-01-29T02:39:35.607Z,2.69
2023-01-29T02:42:09.883Z,2.70
2023-01-29T02:44:42.033Z,2.71
2023-01-29T02:47:16.082Z,2.70
2023-01-29T02:49:49.109Z,2.66
2023-01-29T02:52:21.300Z,2.65
2023-01-29T02:54:52.296Z,2.66
2023-01-29T02:57:22.782Z,2.69
2023-01-29T02:59:56.184Z,2.69
2023-01-29T03:02:27.681Z,2.68
2023-01-29T03:05:00.387Z,2.71
2023-01-29T03:07:46.611Z,2.70
2023-01-29T03:10:33.422Z,2.65
2023-01-29T03:13:04.587Z,2.68
2023-01-29T03:15:38.920Z,2.64
2023-01-29T03:18:26.237Z,2.63
2023-01-29T03:20:58.601Z,2.64
2023-01-29T03:23:47.070Z,2.68
2023-01-29T03:26:33.934Z,2.69
2023-01-29T03:29:20.219Z,2.70
2023-01-29T03:32:06.670Z,2.74
2023-01-29T03:34:39.755Z,2.78
2023-01-29T03:37:10.488Z,2.82
2023-01-29T03:39:38.572Z,2.85
2023-01-29T03:42:14.168Z,2.85
2023-01-29T03:44:48.980Z,2.87
2023-01-29T03:47:28.564Z,2.89
2023-01-29T03:50:01.275Z,2.87
2023-01-29T03:52:35.170Z,2.90
2023-01-29T03:55:07.053Z,2.92
2023-01-29T03:57:39.631Z,2.91
2023-01-29T04:00:16.124Z,2.94
2023-01-29T04:03:04.506Z,3.02
2023-01-29T04:05:39.173Z,3.00
2023-01-29T04:08:18.274Z,3.00
2023-01-29T04:10:48.815Z,3.05
2023-01-29T04:13:17.122Z,3.08
2023-01-29T04:15:48.907Z,3.12
2023-01-29T04:18:19.305Z,3.16
2023-01-29T04:21:07.409Z,3.17
2023-01-29T04:23:35.572Z,3.17
2023-01-29T04:26:12.624Z,3.18
2023-01-29T04:28:48.506Z,3.19
2023-01-29T04:31:17.629Z,3.26
2023-01-29T04:33:49.675Z,3.22
2023-01-29T04:36:23.676Z,3.29
2023-01-29T04:39:00.291Z,3.33
2023-01-29T04:41:32.402Z,3.33
2023-01-29T04:44:03.772Z,3.34
2023-01-29T04:46:35.490Z,3.36
2023-01-29T04:49:12.220Z,3.38
2023-01-29T04:51:45.995Z,3.39
2023-01-29T04:54:17.723Z,3.41
2023-01-29T04:56:53.168Z,3.38
2023-01-29T04:59:24.979Z,3.41
2023-01-29T05:01:54.159Z,3.40
2023-01-29T05:04:24.861Z,3.41
2023-01-29T05:06:53.602Z,3.44
2023-01-29T05:09:22.406Z,3.45
2023-01-29T05:11:51.332Z,3.46
2023-01-29T05:14:20.974Z,3.49
2023-01-29T05:16:52.490Z,3.44
2023-01-29T05:19:20.541Z,3.52
2023-01-29T05:21:51.502Z,3.52
2023-01-29T05:24:20.759Z,3.55
2023-01-29T05:27:07.693Z,3.54
2023-01-29T05:29:35.739Z,3.52
2023-01-29T05:32:04.095Z,3.57
2023-01-29T05:34:32.354Z,3.57
2023-01-29T05:37:02.154Z,3.56
2023-01-29T05:39:30.211Z,3.56
2023-01-29T05:41:58.288Z,3.57
2023-01-29T05:44:26.710Z,3.59
2023-01-29T05:46:54.952Z,3.61
2023-01-29T05:49:23.134Z,3.63
2023-01-29T05:51:51.325Z,3.67
2023-01-29T05:54:20.799Z,3.70
2023-01-29T05:56:48.834Z,3.69
2023-01-29T05:59:17.034Z,3.67
2023-01-29T06:01:45.094Z,3.73
2023-01-29T06:04:13.220Z,3.76
2023-01-29T06:06:41.367Z,3.78
2023-01-29T06:09:11.317Z,3.79
2023-01-29T06:11:41.222Z,3.83
2023-01-29T06:14:09.373Z,3.79
2023-01-29T06:16:37.437Z,3.79
2023-01-29T06:19:05.446Z,3.82
2023-01-29T06:21:33.562Z,3.87
2023-01-29T06:24:01.829Z,3.87
2023-01-29T06:26:29.896Z,3.87
2023-01-29T06:28:59.566Z,3.92
2023-01-29T06:31:38.425Z,3.91
2023-01-29T06:34:07.451Z,3.92
2023-01-29T06:36:35.753Z,3.95
2023-01-29T06:39:04.157Z,3.96
2023-01-29T06:41:32.406Z,3.99
2023-01-29T06:44:02.069Z,4.01
2023-01-29T06:46:30.600Z,4.01
2023-01-29T06:48:59.259Z,3.98
2023-01-29T06:51:27.479Z,4.07
2023-01-29T06:53:56.494Z,4.06
2023-01-29T06:56:25.171Z,4.11
2023-01-29T06:58:53.556Z,4.10
2023-01-29T07:01:35.052Z,4.10
2023-01-29T07:04:04.229Z,4.11
2023-01-29T07:06:32.666Z,4.13
2023-01-29T07:09:01.042Z,4.09
2023-01-29T07:11:29.362Z,4.11
2023-01-29T07:13:57.514Z,4.15
2023-01-29T07:16:27.374Z,4.17
2023-01-29T07:18:55.593Z,4.19
2023-01-29T07:21:23.719Z,4.18
2023-01-29T07:23:51.932Z,4.16
2023-01-29T07:26:20.198Z,4.14
2023-01-29T07:28:48.327Z,4.19
2023-01-29T07:31:16.901Z,4.20
2023-01-29T07:33:46.933Z,4.17
2023-01-29T07:36:14.997Z,4.18
2023-01-29T07:38:43.411Z,4.18
2023-01-29T07:41:12.669Z,4.16
2023-01-29T07:43:40.748Z,4.14
2023-01-29T07:46:09.173Z,4.12
2023-01-29T07:48:37.486Z,4.06
2023-01-29T07:51:07.540Z,4.05
2023-01-29T07:53:35.936Z,4.02
2023-01-29T07:56:05.450Z,4.00
2023-01-29T07:58:35.745Z,4.00
2023-01-29T08:01:06.693Z,3.98
2023-01-29T08:03:34.768Z,4.02
2023-01-29T08:06:03.030Z,4.00
2023-01-29T08:08:32.734Z,4.00
2023-01-29T08:11:02.241Z,3.98
2023-01-29T08:13:30.455Z,3.95
2023-01-29T08:16:00.694Z,4.00
2023-01-29T08:18:28.840Z,3.96
2023-01-29T08:21:00.456Z,3.99
2023-01-29T08:23:28.606Z,3.97
2023-01-29T08:25:58.206Z,4.01
2023-01-29T08:28:26.416Z,4.04
2023-01-29T08:30:54.907Z,4.00
2023-01-29T08:33:29.652Z,4.02
2023-01-29T08:36:05.427Z,4.02
2023-01-29T08:38:33.849Z,4.04
2023-01-29T08:41:03.588Z,4.05
2023-01-29T08:43:31.870Z,4.08
2023-01-29T08:45:59.957Z,4.08
2023-01-29T08:48:29.031Z,4.11
2023-01-29T08:50:58.341Z,4.07
2023-01-29T08:53:26.641Z,4.10
2023-01-29T08:55:54.812Z,4.10
2023-01-29T08:58:24.357Z,4.10
2023-01-29T09:00:52.567Z,4.11
2023-01-29T09:03:20.788Z,4.11
2023-01-29T09:05:48.911Z,4.16
2023-01-29T09:08:16.999Z,4.17
2023-01-29T09:10:44.981Z,4.17
2023-01-29T09:13:13.032Z,4.20
2023-01-29T09:15:42.681Z,4.27
2023-01-29T09:18:10.947Z,4.27
2023-01-29T09:20:39.063Z,4.28
2023-01-29T09:23:07.402Z,4.24
2023-01-29T09:25:35.903Z,4.30
2023-01-29T09:28:04.106Z,4.29
2023-01-29T09:30:33.466Z,4.35
2023-01-29T09:33:03.039Z,4.36
2023-01-29T09:35:31.180Z,4.37
2023-01-29T09:37:59.440Z,4.44
2023-01-29T09:40:31.956Z,4.41
2023-01-29T09:43:03.138Z,4.42
2023-01-29T09:45:31.764Z,4.44
2023-01-29T09:48:01.628Z,4.52
2023-01-29T09:50:34.114Z,4.47
2023-01-29T09:53:04.827Z,4.56
2023-01-29T09:55:36.611Z,4.61
2023-01-29T09:58:06.430Z,4.64
2023-01-29T10:00:38.974Z,4.67
2023-01-29T10:03:18.940Z,4.74
2023-01-29T10:05:57.051Z,4.75
2023-01-29T10:08:34.086Z,4.80
2023-01-29T10:11:05.728Z,4.84
2023-01-29T10:13:40.774Z,4.95
2023-01-29T10:16:16.442Z,4.94
2023-01-29T10:18:57.075Z,5.05
2023-01-29T10:21:40.088Z,5.14
2023-01-29T10:24:18.218Z,5.20
2023-01-29T10:26:46.589Z,5.27
2023-01-29T10:29:17.352Z,5.27
2023-01-29T10:31:48.256Z,5.33
2023-01-29T10:34:20.493Z,5.44
2023-01-29T10:36:49.723Z,5.47
2023-01-29T10:39:20.678Z,5.57
2023-01-29T10:42:03.564Z,5.66
2023-01-29T10:44:39.587Z,5.73
2023-01-29T10:47:30.389Z,5.82
2023-01-29T10:50:05.685Z,5.87
2023-01-29T10:52:37.865Z,5.98
2023-01-29T10:55:16.896Z,6.07
2023-01-29T10:57:56.600Z,6.25
2023-01-29T11:00:26.896Z,6.36
2023-01-29T11:02:55.097Z,6.46
2023-01-29T11:05:26.941Z,6.58
2023-01-29T11:08:02.249Z,6.71
2023-01-29T11:10:33.840Z,6.80
2023-01-29T11:13:02.561Z,6.83
2023-01-29T11:15:33.475Z,6.88
2023-01-29T11:18:10.750Z,6.87
2023-01-29T11:20:38.781Z,6.99
2023-01-29T11:23:07.763Z,6.91
2023-01-29T11:25:37.841Z,6.94
2023-01-29T11:28:07.539Z,6.98
2023-01-29T11:30:38.625Z,6.95
2023-01-29T11:33:13.342Z,6.94
2023-01-29T11:35:41.753Z,6.95
2023-01-29T11:38:18.610Z,6.96
2023-01-29T11:40:48.874Z,6.93
2023-01-29T11:43:21.527Z,6.87
2023-01-29T11:45:51.807Z,6.90
2023-01-29T11:48:21.166Z,6.81
2023-01-29T11:50:53.920Z,6.94
2023-01-29T11:53:28.301Z,6.93
2023-01-29T11:55:57.901Z,6.98
2023-01-29T11:58:28.799Z,6.93
2023-01-29T12:00:58.775Z,7.00
2023-01-29T12:03:32.093Z,7.05
2023-01-29T12:06:02.319Z,7.09
2023-01-29T12:08:34.902Z,7.13
2023-01-29T12:11:11.285Z,7.12
2023-01-29T12:13:40.992Z,7.18
2023-01-29T12:16:16.990Z,7.23
2023-01-29T12:18:47.888Z,7.30
2023-01-29T12:21:19.316Z,7.34
2023-01-29T12:23:51.429Z,7.43
2023-01-29T12:26:25.806Z,7.45
2023-01-29T12:28:59.002Z,7.53
2023-01-29T12:31:30.534Z,7.63
2023-01-29T12:34:02.900Z,7.63
2023-01-29T12:36:34.043Z,7.72
2023-01-29T12:39:02.448Z,7.77
2023-01-29T12:41:36.287Z,7.77
2023-01-29T12:44:06.941Z,7.89
2023-01-29T12:46:38.798Z,7.97
2023-01-29T12:49:12.240Z,8.09
2023-01-29T12:51:43.772Z,8.23
2023-01-29T12:54:13.529Z,8.35
2023-01-29T12:56:47.226Z,8.49
2023-01-29T12:59:19.363Z,8.61
2023-01-29T13:01:50.748Z,8.76
2023-01-29T13:04:20.965Z,8.91
2023-01-29T13:06:52.734Z,9.07
2023-01-29T13:09:22.526Z,9.15
2023-01-29T13:11:54.795Z,9.31
2023-01-29T13:14:24.621Z,9.40
2023-01-29T13:16:55.769Z,9.43
2023-01-29T13:19:27.519Z,9.49
2023-01-29T13:21:56.599Z,9.61
2023-01-29T13:24:25.871Z,9.57
2023-01-29T13:26:55.456Z,9.72
2023-01-29T13:29:24.538Z,9.64
2023-01-29T13:31:54.041Z,9.59
2023-01-29T13:34:24.309Z,9.75
2023-01-29T13:36:53.599Z,9.75
2023-01-29T13:39:25.127Z,9.72
2023-01-29T13:41:53.926Z,9.78
2023-01-29T13:44:25.398Z,9.82
2023-01-29T13:46:56.364Z,9.83
2023-01-29T13:49:31.127Z,9.86
2023-01-29T13:52:00.117Z,9.82
2023-01-29T13:54:28.550Z,9.77
2023-01-29T13:57:01.118Z,9.77
2023-01-29T13:59:48.363Z,9.86
2023-01-29T14:02:25.906Z,9.86
2023-01-29T14:05:14.308Z,9.79
2023-01-29T14:07:52.194Z,9.81
2023-01-29T14:10:21.545Z,9.86
2023-01-29T14:12:51.236Z,9.88
2023-01-29T14:15:27.140Z,9.89
2023-01-29T14:17:59.858Z,9.92
2023-01-29T14:20:44.596Z,9.82
2023-01-29T14:23:21.881Z,9.90
2023-01-29T14:25:50.131Z,9.93
2023-01-29T14:28:22.699Z,9.92
2023-01-29T14:30:51.894Z,9.85
2023-01-29T14:33:29.730Z,9.90
2023-01-29T14:35:59.347Z,9.78
2023-01-29T14:38:28.661Z,9.77
2023-01-29T14:41:09.044Z,9.81
2023-01-29T14:43:37.124Z,9.80
2023-01-29T14:46:23.115Z,9.79
2023-01-29T14:48:53.423Z,9.80
2023-01-29T14:51:21.891Z,9.72
2023-01-29T14:53:53.074Z,9.77
2023-01-29T14:56:26.180Z,9.70
2023-01-29T14:58:57.233Z,9.63
2023-01-29T15:01:27.949Z,9.58
2023-01-29T15:04:01.591Z,9.61
2023-01-29T15:06:32.114Z,9.63
2023-01-29T15:09:06.069Z,9.63
2023-01-29T15:11:38.285Z,9.68
2023-01-29T15:14:24.237Z,9.49
2023-01-29T15:17:18.300Z,9.61
2023-01-29T15:19:49.205Z,9.62
2023-01-29T15:22:18.604Z,9.60
2023-01-29T15:24:48.025Z,9.57
2023-01-29T15:27:17.756Z,9.49
2023-01-29T15:29:48.750Z,9.45
2023-01-29T15:32:20.803Z,9.55
2023-01-29T15:34:50.921Z,9.47
2023-01-29T15:37:26.732Z,9.56
2023-01-29T15:39:55.185Z,9.56
2023-01-29T15:42:25.877Z,9.46
2023-01-29T15:44:55.656Z,9.56
2023-01-29T15:47:26.899Z,9.45
2023-01-29T15:49:57.473Z,9.50
2023-01-29T15:52:28.252Z,9.42
2023-01-29T15:54:57.925Z,9.43
2023-01-29T15:57:29.543Z,9.39
2023-01-29T15:59:59.109Z,9.33
2023-01-29T16:02:34.442Z,9.43
2023-01-29T16:05:05.231Z,9.33
2023-01-29T16:07:34.161Z,9.34
2023-01-29T16:10:02.551Z,9.41
2023-01-29T16:12:30.640Z,9.37
2023-01-29T16:14:58.787Z,9.34
2023-01-29T16:17:27.589Z,9.36
2023-01-29T16:19:59.562Z,9.39
2023-01-29T16:22:30.608Z,9.31
2023-01-29T16:24:59.987Z,9.26
2023-01-29T16:27:28.110Z,9.27
2023-01-29T16:29:56.422Z,9.23
2023-01-29T16:32:24.629Z,9.17
2023-01-29T16:34:57.572Z,9.19
2023-01-29T16:37:27.420Z,9.16
2023-01-29T16:39:57.312Z,9.00
2023-01-29T16:42:30.024Z,9.01
2023-01-29T16:44:59.982Z,8.93
2023-01-29T16:47:29.898Z,8.85
2023-01-29T16:49:59.050Z,8.86
2023-01-29T16:52:28.870Z,8.85
2023-01-29T16:55:02.843Z,8.86
2023-01-29T16:57:33.838Z,8.87
2023-01-29T17:00:03.430Z,8.93
2023-01-29T17:02:33.614Z,8.84
2023-01-29T17:05:03.569Z,8.88
2023-01-29T17:07:32.904Z,8.92
2023-01-29T17:10:03.141Z,8.86
2023-01-29T17:12:36.255Z,8.86
2023-01-29T17:15:06.722Z,8.93
2023-01-29T17:17:36.328Z,8.86
2023-01-29T17:20:14.152Z,8.93
2023-01-29T17:22:42.224Z,8.93
2023-01-29T17:25:14.270Z,8.95
2023-01-29T17:27:42.868Z,8.97
2023-01-29T17:30:15.426Z,8.93
2023-01-29T17:32:44.995Z,8.93
2023-01-29T17:35:16.610Z,8.83
2023-01-29T17:37:45.861Z,8.84
2023-01-29T17:40:23.091Z,8.89
2023-01-29T17:42:51.212Z,8.89
2023-01-29T17:45:19.611Z,8.92
2023-01-29T17:47:48.126Z,8.90
2023-01-29T17:50:20.226Z,8.87
2023-01-29T17:52:48.288Z,8.82
2023-01-29T17:55:16.798Z,8.82
2023-01-29T17:57:46.782Z,8.82
2023-01-29T18:00:17.625Z,8.91
2023-01-29T18:02:45.813Z,8.88
2023-01-29T18:05:14.858Z,8.91
2023-01-29T18:07:44.575Z,8.88
2023-01-29T18:10:14.323Z,8.82
2023-01-29T18:12:42.427Z,8.82
2023-01-29T18:15:13.157Z,8.79
2023-01-29T18:17:41.977Z,8.82
2023-01-29T18:20:18.295Z,8.72
2023-01-29T18:22:46.911Z,8.73
2023-01-29T18:25:15.563Z,8.82
2023-01-29T18:27:44.081Z,8.80
2023-01-29T18:30:14.140Z,8.75
2023-01-29T18:32:42.258Z,8.79
2023-01-29T18:35:10.782Z,8.75
2023-01-29T18:37:38.862Z,8.76
2023-01-29T18:40:07.929Z,8.75
2023-01-29T18:42:36.515Z,8.70
2023-01-29T18:45:04.886Z,8.71
2023-01-29T18:47:34.386Z,8.67
2023-01-29T18:50:02.686Z,8.67
2023-01-29T18:52:31.164Z,8.65
2023-01-29T18:55:01.138Z,8.68
2023-01-29T18:58:26.938Z,8.71
2023-01-29T19:00:17.825Z,8.67
2023-01-29T19:02:47.729Z,8.70
2023-01-29T19:05:17.038Z,8.70
2023-01-29T19:07:45.605Z,8.70
2023-01-29T19:10:15.843Z,8.73
2023-01-29T19:12:44.183Z,8.68
2023-01-29T19:15:12.608Z,8.68
2023-01-29T19:17:40.982Z,8.72
2023-01-29T19:20:12.529Z,8.75
2023-01-29T19:22:40.901Z,8.74
2023-01-29T19:25:09.484Z,8.78
2023-01-29T19:27:37.977Z,8.74
2023-01-29T19:30:06.781Z,8.79
2023-01-29T19:32:34.914Z,8.81
2023-01-29T19:35:03.269Z,8.80
2023-01-29T19:37:32.979Z,8.84
2023-01-29T19:40:00.940Z,8.79
2023-01-29T19:42:29.445Z,8.78
2023-01-29T19:44:57.642Z,8.78
2023-01-29T19:47:26.824Z,8.84
2023-01-29T19:49:55.291Z,8.80
2023-01-29T19:52:50.656Z,8.85
2023-01-29T19:55:21.405Z,8.82
2023-01-29T19:57:49.741Z,8.88
2023-01-29T20:00:19.589Z,8.89
2023-01-29T20:02:47.724Z,8.90
2023-01-29T20:05:18.578Z,8.89
2023-01-29T20:07:46.987Z,8.88
2023-01-29T20:10:17.461Z,8.89
2023-01-29T20:12:48.217Z,8.92
2023-01-29T20:15:16.757Z,8.87
2023-01-29T20:17:45.826Z,8.91
2023-01-29T20:20:14.869Z,8.90
2023-01-29T20:22:43.180Z,8.92
2023-01-29T20:25:14.205Z,8.92
2023-01-29T20:27:43.367Z,8.88
2023-01-29T20:30:14.210Z,8.77
2023-01-29T20:32:42.482Z,8.88
2023-01-29T20:35:11.111Z,8.82
2023-01-29T20:37:39.135Z,8.78
2023-01-29T20:40:08.224Z,8.67
2023-01-29T20:42:36.511Z,8.60
2023-01-29T20:45:06.203Z,8.51
2023-01-29T20:47:35.976Z,8.37
2023-01-29T20:50:08.675Z,8.43
2023-01-29T20:52:37.131Z,8.36
2023-01-29T20:55:07.435Z,8.27
2023-01-29T20:57:35.960Z,8.13
2023-01-29T21:00:04.234Z,8.04
2023-01-29T21:02:32.727Z,8.01
2023-01-29T21:05:02.642Z,8.06
2023-01-29T21:07:30.842Z,8.05
2023-01-29T21:09:58.971Z,7.95
2023-01-29T21:12:26.997Z,7.95
2023-01-29T21:14:55.088Z,7.81
2023-01-29T21:17:23.412Z,7.85
2023-01-29T21:19:51.645Z,7.78
2023-01-29T21:22:21.208Z,7.69
2023-01-29T21:24:49.267Z,7.74
2023-01-29T21:27:17.562Z,7.66
2023-01-29T21:29:45.678Z,7.65
2023-01-29T21:32:14.505Z,7.65
2023-01-29T21:34:42.716Z,7.60
2023-01-29T21:37:10.833Z,7.56
2023-01-29T21:39:40.369Z,7.52
2023-01-29T21:42:25.637Z,7.42
2023-01-29T21:44:53.688Z,7.39
2023-01-29T21:47:22.387Z,7.30
2023-01-29T21:49:50.424Z,7.17
2023-01-29T21:52:18.494Z,7.12
2023-01-29T21:54:49.139Z,6.99
2023-01-29T21:57:17.729Z,6.95
2023-01-29T21:59:46.948Z,6.88
2023-01-29T22:02:22.107Z,6.78
2023-01-29T22:04:52.449Z,6.65
2023-01-29T22:07:20.752Z,6.58
2023-01-29T22:09:51.437Z,6.44
2023-01-29T22:12:20.049Z,6.37
2023-01-29T22:14:48.566Z,6.28
2023-01-29T22:17:19.667Z,6.32
2023-01-29T22:19:48.077Z,6.27
2023-01-29T22:22:17.124Z,6.26
2023-01-29T22:24:46.734Z,6.18
2023-01-29T22:27:16.730Z,6.25
2023-01-29T22:29:44.957Z,6.21
2023-01-29T22:32:13.386Z,6.21
2023-01-29T22:34:41.795Z,6.14
2023-01-29T22:37:10.004Z,6.14
2023-01-29T22:39:38.460Z,6.04
2023-01-29T22:42:06.665Z,6.03
2023-01-29T22:44:36.602Z,5.85
2023-01-29T22:47:04.901Z,5.94
2023-01-29T22:49:33.203Z,5.85
2023-01-29T22:52:13.872Z,5.86
2023-01-29T22:54:43.454Z,5.74
2023-01-29T22:57:12.465Z,5.75
2023-01-29T22:59:42.610Z,5.68
2023-01-29T23:02:10.792Z,5.60
2023-01-29T23:04:38.911Z,5.48
2023-01-29T23:07:07.149Z,5.57
2023-01-29T23:09:35.196Z,5.55
2023-01-29T23:12:03.379Z,5.48
2023-01-29T23:14:32.001Z,5.41
2023-01-29T23:17:01.705Z,5.44
2023-01-29T23:19:30.656Z,5.39
2023-01-29T23:21:58.636Z,5.33
2023-01-29T23:24:26.814Z,5.31
2023-01-29T23:27:12.653Z,5.35
2023-01-29T23:29:41.394Z,5.43
2023-01-29T23:32:11.211Z,5.38
2023-01-29T23:34:39.569Z,5.36
2023-01-29T23:37:07.665Z,5.36
2023-01-29T23:39:35.744Z,5.46
2023-01-29T23:42:03.687Z,5.43
2023-01-29T23:44:31.882Z,5.41
2023-01-29T23:47:00.414Z,5.38
2023-01-29T23:49:29.987Z,5.33
2023-01-29T23:51:58.384Z,5.35
2023-01-29T23:54:26.718Z,5.28
2023-01-29T23:56:54.905Z,5.32
2023-01-29T23:59:23.078Z,5.33
